Terminal Aerodrome Forecast
Issued by NWS

Current Version | Previous Version | Text Only | Print | Product List | Glossary On
Versions: 1 2 3 4 5 6 7 8 9 10 11 12 13
000
FTAK31 PANC 302334
TAFADL
TAF
PADL 302334Z 3100/3124 02020G30KT P6SM VCSH SCT020 BKN040
      TEMPO 3100/3104 3SM -SN BKN020
     FM310600 36025G33KT 4SM -SN BKN020 OVC040
     FM311200 36025G38KT 1SM -SN BKN010 OVC040
     FM311900 35015G22KT 3SM -SN BKN020 OVC040=

USA.gov is the U.S. government's official web portal to all federal, state and local government web resources and services.